Time;durP1;ratioP1;P1;durP2;ratioP2;P2;SDS_P1;SDS_P2;PMS_P1;PMS_P2;Temp;Humidity;BMP_temperature;BMP_pressure;BME280_temperature;BME280_humidity;BME280_pressure;Samples;Min_cycle;Max_cycle;Signal;HPM_P1;HPM_P2
2022/09/18 00:04:58;;;;;;;2.70;1.40;;;19.40;62.60;;;;;;10072740;29;20048;-57
2022/09/18 00:09:59;;;;;;;1.80;0.82;;;19.40;62.50;;;;;;10088868;29;20111;-57
2022/09/18 00:15:00;;;;;;;2.60;1.00;;;19.40;62.50;;;;;;10089446;29;20116;-57
2022/09/18 00:20:01;;;;;;;2.58;1.20;;;19.30;62.60;;;;;;10098838;29;20125;-58
2022/09/18 00:25:02;;;;;;;3.70;1.05;;;19.40;62.60;;;;;;10089510;29;20088;-58
2022/09/18 00:30:03;;;;;;;2.25;0.65;;;19.30;62.50;;;;;;10088751;29;20141;-58
2022/09/18 00:35:04;;;;;;;1.25;0.70;;;19.40;62.60;;;;;;10088853;29;20041;-57
2022/09/18 00:40:05;;;;;;;2.78;0.77;;;19.40;62.60;;;;;;10088415;29;20050;-58
2022/09/18 00:45:09;;;;;;;3.83;1.20;;;19.30;62.60;;;;;;10087878;29;20056;-57
2022/09/18 00:50:19;;;;;;;2.78;1.05;;;19.30;62.70;;;;;;10088178;29;20029;-57
2022/09/18 00:55:30;;;;;;;2.25;0.98;;;19.40;68.00;;;;;;10059703;29;20080;-58
2022/09/18 01:00:32;;;;;;;3.13;1.02;;;19.40;67.30;;;;;;10056020;29;20132;-58
2022/09/18 01:05:52;;;;;;;3.42;1.30;;;19.40;66.70;;;;;;10071048;29;20061;-58
2022/09/18 01:11:47;;;;;;;2.38;1.00;;;19.40;66.50;;;;;;10070962;29;20386;-57
2022/09/18 01:17:16;;;;;;;2.28;0.70;;;19.40;66.30;;;;;;9923940;29;20042;-57
2022/09/18 01:22:46;;;;;;;2.77;0.90;;;19.40;65.90;;;;;;10057594;29;20070;-57
2022/09/18 01:28:05;;;;;;;;;;;19.40;65.80;;;;;;10071919;29;20281;-58
2022/09/18 01:33:37;;;;;;;3.28;1.00;;;19.30;65.80;;;;;;10086809;29;19907;-58
2022/09/18 01:38:49;;;;;;;2.00;0.95;;;19.40;65.70;;;;;;10080931;29;20442;-58
2022/09/18 01:43:58;;;;;;;1.85;0.80;;;19.30;65.60;;;;;;10086487;29;20045;-57
2022/09/18 01:49:11;;;;;;;1.65;0.60;;;19.30;65.50;;;;;;10070349;29;20117;-57
2022/09/18 01:54:20;;;;;;;3.97;1.02;;;19.30;65.30;;;;;;10069622;29;20048;-57
2022/09/18 01:59:28;;;;;;;1.30;0.70;;;19.30;65.30;;;;;;10069541;29;20092;-57
2022/09/18 02:04:34;;;;;;;2.50;0.88;;;19.30;65.20;;;;;;10069894;29;20025;-58
2022/09/18 02:09:34;;;;;;;6.07;1.33;;;19.30;65.70;;;;;;10069850;29;20035;-58
2022/09/18 02:14:42;;;;;;;1.92;0.85;;;19.30;65.20;;;;;;10069616;29;20346;-58
2022/09/18 02:19:49;;;;;;;3.47;0.60;;;19.30;65.10;;;;;;10079024;29;20064;-57
2022/09/18 02:24:53;;;;;;;1.30;0.70;;;19.30;65.00;;;;;;10069565;29;20060;-57
2022/09/18 02:29:55;;;;;;;4.45;1.20;;;19.20;64.90;;;;;;10070599;29;20904;-57
2022/09/18 02:34:56;;;;;;;1.95;0.73;;;19.20;65.00;;;;;;10075841;29;20033;-57
2022/09/18 02:40:30;;;;;;;3.28;1.00;;;19.20;64.90;;;;;;10075859;29;20037;-57
2022/09/18 02:46:18;;;;;;;2.58;0.90;;;19.20;64.80;;;;;;10090896;29;20865;-57
2022/09/18 02:51:53;;;;;;;2.22;0.70;;;19.20;64.70;;;;;;10092697;29;20061;-57
2022/09/18 02:57:13;;;;;;;2.15;0.65;;;19.20;65.10;;;;;;10075559;29;20502;-59
2022/09/18 03:02:14;;;;;;;2.13;0.65;;;19.20;64.80;;;;;;10075378;29;20084;-58
2022/09/18 03:07:15;;;;;;;2.95;0.50;;;19.20;64.80;;;;;;10075135;29;20624;-57
2022/09/18 03:12:16;;;;;;;2.03;0.90;;;19.20;64.80;;;;;;10059336;29;20428;-57
2022/09/18 03:17:16;;;;;;;1.83;0.75;;;19.10;64.70;;;;;;10074719;29;20047;-57
2022/09/18 03:22:17;;;;;;;1.77;0.98;;;19.10;64.60;;;;;;10091205;29;20044;-58
2022/09/18 03:27:17;;;;;;;2.83;0.70;;;19.10;64.40;;;;;;10089819;29;20068;-58
2022/09/18 03:32:18;;;;;;;4.68;0.80;;;19.10;64.40;;;;;;10090843;29;20145;-57
2022/09/18 03:37:19;;;;;;;1.90;0.50;;;19.10;64.30;;;;;;10091016;29;20053;-57
2022/09/18 03:42:19;;;;;;;2.15;0.60;;;19.10;64.40;;;;;;10057932;29;20128;-57
2022/09/18 03:47:20;;;;;;;2.30;0.93;;;19.10;64.60;;;;;;10047325;29;20121;-57
2022/09/18 03:52:21;;;;;;;1.63;0.50;;;19.10;64.60;;;;;;10071817;29;20095;-57
2022/09/18 03:57:21;;;;;;;4.55;0.80;;;19.10;64.40;;;;;;10073050;29;20469;-57
2022/09/18 04:02:22;;;;;;;2.50;1.13;;;19.10;64.30;;;;;;10073131;29;20165;-57
2022/09/18 04:07:23;;;;;;;1.40;0.50;;;19.10;64.40;;;;;;10088215;29;20056;-57
2022/09/18 04:12:24;;;;;;;3.05;0.90;;;19.00;64.30;;;;;;10088203;29;20186;-58
2022/09/18 04:17:25;;;;;;;1.83;0.80;;;19.10;64.30;;;;;;10084696;29;20072;-57
2022/09/18 04:22:26;;;;;;;2.30;0.70;;;19.10;64.50;;;;;;10083544;29;20089;-58
2022/09/18 04:27:27;;;;;;;1.77;0.50;;;19.10;64.40;;;;;;10087657;29;20136;-58
2022/09/18 04:32:27;;;;;;;1.98;0.55;;;19.10;64.30;;;;;;10087896;29;20097;-57
2022/09/18 04:37:28;;;;;;;3.33;0.70;;;19.10;64.20;;;;;;10086656;29;20540;-57
2022/09/18 04:42:29;;;;;;;1.42;0.63;;;19.10;64.20;;;;;;10087580;29;20047;-57
2022/09/18 04:47:30;;;;;;;2.25;0.65;;;19.10;64.20;;;;;;10070866;29;20053;-57
2022/09/18 04:52:31;;;;;;;2.13;0.57;;;19.00;64.10;;;;;;10086859;29;20124;-56
2022/09/18 04:57:32;;;;;;;5.82;0.90;;;19.10;64.30;;;;;;10105171;29;20052;-58
2022/09/18 05:02:32;;;;;;;3.00;0.68;;;19.10;64.50;;;;;;10093438;29;20072;-58
2022/09/18 05:07:33;;;;;;;9.00;1.50;;;19.20;64.60;;;;;;10067686;29;20025;-58
2022/09/18 05:12:34;;;;;;;6.47;0.95;;;19.30;64.90;;;;;;10097249;29;20069;-59
2022/09/18 05:17:35;;;;;;;12.35;1.70;;;19.20;65.30;;;;;;10058012;29;20092;-58
2022/09/18 05:22:36;;;;;;;4.80;1.25;;;19.30;65.20;;;;;;10086300;29;20124;-58
2022/09/18 05:27:37;;;;;;;21.85;2.17;;;19.30;65.60;;;;;;10095735;29;20602;-57
2022/09/18 05:32:38;;;;;;;23.15;2.97;;;19.20;65.20;;;;;;10083472;29;20532;-57
2022/09/18 05:37:38;;;;;;;12.27;2.00;;;19.20;65.40;;;;;;10079447;29;20125;-58
2022/09/18 05:42:46;;;;;;;9.90;1.48;;;19.20;65.50;;;;;;10084681;29;20568;-58
2022/09/18 05:47:54;;;;;;;11.40;3.28;;;19.10;65.40;;;;;;10084355;29;20069;-57
2022/09/18 05:53:03;;;;;;;11.50;2.08;;;19.10;65.50;;;;;;10084222;29;20033;-58
2022/09/18 05:58:06;;;;;;;9.48;1.70;;;19.10;65.50;;;;;;10084282;29;20053;-57
2022/09/18 06:03:10;;;;;;;10.23;1.73;;;19.00;65.40;;;;;;10083125;29;20048;-57
2022/09/18 06:08:11;;;;;;;8.77;1.60;;;19.00;65.30;;;;;;10075981;29;20089;-58
2022/09/18 06:13:15;;;;;;;10.57;1.65;;;19.00;65.20;;;;;;10092747;29;20029;-57
2022/09/18 06:18:16;;;;;;;6.15;1.50;;;19.00;65.20;;;;;;10102477;29;20033;-57
2022/09/18 06:23:16;;;;;;;4.85;1.02;;;19.00;65.20;;;;;;10075493;29;20743;-58
2022/09/18 06:28:17;;;;;;;6.25;2.03;;;19.00;65.10;;;;;;10075643;29;20120;-57
2022/09/18 06:33:18;;;;;;;5.25;1.25;;;19.00;65.10;;;;;;10092382;29;20087;-58
2022/09/18 06:38:18;;;;;;;5.55;1.55;;;19.00;65.10;;;;;;10092217;29;20426;-57
2022/09/18 06:43:20;;;;;;;6.95;1.17;;;19.00;65.00;;;;;;10091815;29;20127;-58
2022/09/18 06:48:25;;;;;;;4.03;1.02;;;19.00;64.90;;;;;;10074127;29;20041;-58
2022/09/18 06:53:26;;;;;;;4.00;0.93;;;19.00;64.90;;;;;;10091396;29;20508;-58
2022/09/18 06:58:27;;;;;;;6.45;0.90;;;19.00;64.90;;;;;;10074261;29;20067;-57
2022/09/18 07:03:27;;;;;;;5.03;1.30;;;19.00;64.80;;;;;;10080681;29;20055;-58
2022/09/18 07:08:28;;;;;;;4.97;1.30;;;18.90;64.60;;;;;;10098916;29;20060;-55
2022/09/18 07:13:31;;;;;;;7.50;1.40;;;19.10;66.10;;;;;;10101815;29;20116;-55
2022/09/18 07:18:32;;;;;;;14.48;1.80;;;19.10;65.90;;;;;;10100089;29;20490;-58
2022/09/18 07:23:33;;;;;;;31.45;4.00;;;19.20;66.70;;;;;;10075254;29;20048;-56
2022/09/18 07:28:34;;;;;;;17.02;2.03;;;19.20;66.80;;;;;;10074290;29;20055;-57
2022/09/18 07:33:36;;;;;;;23.85;3.67;;;19.20;66.10;;;;;;10059073;29;20033;-56
2022/09/18 07:38:36;;;;;;;22.75;3.78;;;19.10;66.40;;;;;;10088607;29;20462;-57
2022/09/18 07:43:37;;;;;;;18.13;2.90;;;19.10;66.20;;;;;;10096333;29;20049;-57
2022/09/18 07:48:38;;;;;;;15.00;2.90;;;19.10;66.10;;;;;;10087396;29;20592;-58
2022/09/18 07:53:39;;;;;;;12.77;2.60;;;19.00;65.90;;;;;;10084861;29;20112;-57
2022/09/18 07:58:40;;;;;;;8.98;2.75;;;19.00;65.90;;;;;;10086058;29;20105;-57
2022/09/18 08:03:40;;;;;;;9.02;2.40;;;19.00;65.80;;;;;;10085977;29;20045;-57
2022/09/18 08:08:41;;;;;;;8.57;2.15;;;19.00;65.80;;;;;;10085471;29;20033;-57
2022/09/18 08:13:41;;;;;;;10.38;2.40;;;19.00;65.70;;;;;;10084400;29;20028;-58
2022/09/18 08:18:42;;;;;;;11.52;2.15;;;19.00;65.70;;;;;;10085559;29;20442;-56
2022/09/18 08:23:43;;;;;;;6.80;1.73;;;19.00;65.60;;;;;;10087402;29;20037;-57
2022/09/18 08:28:43;;;;;;;10.48;2.47;;;19.00;65.60;;;;;;10085506;29;20029;-57
2022/09/18 08:33:44;;;;;;;9.45;1.80;;;18.90;65.50;;;;;;10086225;29;20116;-57
2022/09/18 08:38:45;;;;;;;7.13;1.75;;;18.90;65.30;;;;;;10087153;29;20489;-57
2022/09/18 08:44:16;;;;;;;3.58;1.13;;;18.90;65.30;;;;;;10083771;29;20128;-56
2022/09/18 08:49:31;;;;;;;5.47;1.85;;;18.90;65.20;;;;;;10065108;29;20029;-57
2022/09/18 08:55:01;;;;;;;10.45;2.13;;;18.90;65.20;;;;;;10084616;29;20401;-57
2022/09/18 09:00:20;;;;;;;7.15;1.67;;;18.90;65.10;;;;;;10086443;29;20861;-56
2022/09/18 09:05:31;;;;;;;6.53;1.88;;;18.90;65.20;;;;;;10084403;29;20026;-56
2022/09/18 09:10:49;;;;;;;9.85;2.13;;;18.90;65.70;;;;;;10082824;29;20037;-57
2022/09/18 09:16:43;;;;;;;16.45;3.22;;;18.90;65.70;;;;;;10081406;29;20128;-56
2022/09/18 09:22:18;;;;;;;10.70;1.95;;;19.00;66.40;;;;;;9949471;29;20046;-57
2022/09/18 09:27:31;;;;;;;10.68;2.30;;;19.00;66.00;;;;;;10067234;29;20120;-55
2022/09/18 09:32:41;;;;;;;20.73;3.80;;;19.00;65.90;;;;;;10071206;29;20029;-56
2022/09/18 09:37:45;;;;;;;29.15;4.85;;;19.00;66.00;;;;;;10071079;29;20655;-56
2022/09/18 09:43:23;;;;;;;32.97;5.32;;;19.00;66.20;;;;;;10069884;29;20053;-56
2022/09/18 09:48:57;;;;;;;25.23;5.65;;;19.00;66.50;;;;;;10086824;29;20056;-56
2022/09/18 09:54:01;;;;;;;23.70;5.32;;;19.00;66.60;;;;;;10086352;29;20393;-55
2022/09/18 09:59:40;;;;;;;26.05;3.95;;;19.00;66.70;;;;;;10069727;29;20045;-58
2022/09/18 10:05:28;;;;;;;28.42;3.95;;;19.00;66.80;;;;;;10072042;29;20072;-57
2022/09/18 10:11:00;;;;;;;19.13;4.47;;;19.10;66.80;;;;;;10077985;29;20112;-56
2022/09/18 10:16:14;;;;;;;31.55;4.57;;;19.20;67.30;;;;;;10069970;29;20412;-55
2022/09/18 10:21:21;;;;;;;21.13;4.72;;;19.30;67.40;;;;;;10094413;29;20049;-56
2022/09/18 10:26:35;;;;;;;25.63;3.90;;;19.30;67.50;;;;;;10084638;29;20033;-58
2022/09/18 10:31:55;;;;;;;39.58;6.80;;;19.30;67.20;;;;;;10069328;29;20537;-57
2022/09/18 10:36:55;;;;;;;;;;;19.20;66.90;;;;;;10086345;29;20060;-56
2022/09/18 10:41:58;;;;;;;26.67;5.50;;;19.10;66.90;;;;;;10085870;29;19922;-56
2022/09/18 10:47:08;;;;;;;17.35;3.75;;;19.00;67.40;;;;;;10069162;29;20021;-55
2022/09/18 10:52:30;;;;;;;15.93;4.30;;;19.10;68.00;;;;;;10072418;29;20092;-56
2022/09/18 10:58:02;;;;;;;17.77;4.63;;;19.00;67.30;;;;;;10092377;29;20055;-56
2022/09/18 11:03:36;;;;;;;16.40;3.70;;;19.00;67.20;;;;;;10102538;29;20044;-57
2022/09/18 11:08:46;;;;;;;16.95;3.85;;;19.00;67.10;;;;;;10063637;29;20116;-56
2022/09/18 11:14:05;;;;;;;14.43;3.88;;;19.00;67.30;;;;;;10075766;29;20037;-56
2022/09/18 11:19:11;;;;;;;14.63;3.17;;;19.00;67.00;;;;;;10084985;29;20030;-56
2022/09/18 11:24:30;;;;;;;11.70;3.50;;;18.90;67.00;;;;;;10091822;29;20049;-55
2022/09/18 11:29:38;;;;;;;15.47;2.63;;;18.90;67.20;;;;;;10076004;29;20124;-56
2022/09/18 11:34:49;;;;;;;11.55;3.38;;;18.90;67.10;;;;;;10075314;29;20041;-55
2022/09/18 11:39:57;;;;;;;10.32;3.15;;;18.90;67.10;;;;;;10086936;29;20039;-56
2022/09/18 11:46:08;;;;;;;7.40;2.13;;;18.90;67.00;;;;;;10074379;29;20040;-56
2022/09/18 11:51:19;;;;;;;10.38;3.15;;;18.90;67.00;;;;;;10077487;29;20037;-56
2022/09/18 11:56:43;;;;;;;9.60;2.72;;;18.90;67.00;;;;;;10074330;29;20045;-55
2022/09/18 12:01:54;;;;;;;9.32;2.40;;;18.90;67.00;;;;;;10088843;29;20101;-56
2022/09/18 12:07:39;;;;;;;5.75;1.50;;;18.90;66.90;;;;;;10074244;29;20025;-55
2022/09/18 12:13:12;;;;;;;6.95;1.77;;;18.90;66.80;;;;;;10055036;29;20561;-55
2022/09/18 12:18:20;;;;;;;7.63;2.40;;;18.90;66.80;;;;;;10082823;29;20499;-56
2022/09/18 12:23:24;;;;;;;7.03;1.70;;;18.90;66.90;;;;;;10073201;29;20579;-56
2022/09/18 12:28:54;;;;;;;5.25;1.80;;;18.90;66.90;;;;;;10072370;29;20056;-56
2022/09/18 12:34:08;;;;;;;5.13;1.73;;;18.90;66.80;;;;;;10089213;29;20029;-56
2022/09/18 12:39:50;;;;;;;7.43;1.50;;;18.90;66.80;;;;;;10089001;29;20072;-58
2022/09/18 12:45:34;;;;;;;10.85;1.75;;;18.90;67.10;;;;;;10074138;29;20033;-58
2022/09/18 12:50:45;;;;;;;9.30;2.45;;;18.90;67.10;;;;;;10075260;29;20033;-57
2022/09/18 12:56:43;;;;;;;38.75;3.75;;;19.00;67.50;;;;;;10067818;29;20385;-57
2022/09/18 13:02:00;;;;;;;14.02;3.90;;;19.00;67.60;;;;;;10086919;29;20117;-57
2022/09/18 13:07:27;;;;;;;15.38;1.92;;;19.00;67.60;;;;;;10072629;29;20064;-56
2022/09/18 13:13:02;;;;;;;11.50;2.35;;;19.00;67.00;;;;;;10070445;29;20041;-56
2022/09/18 13:18:14;;;;;;;10.00;2.20;;;18.90;67.10;;;;;;10075828;29;20100;-56
2022/09/18 13:23:28;;;;;;;7.47;2.15;;;18.90;67.50;;;;;;10081041;29;20076;-57
2022/09/18 13:28:29;;;;;;;6.88;1.33;;;18.90;67.20;;;;;;10082389;29;20040;-57
2022/09/18 13:33:30;;;;;;;7.43;1.33;;;18.90;67.10;;;;;;10066519;29;20040;-57
2022/09/18 13:38:32;;;;;;;5.78;1.50;;;18.80;67.00;;;;;;10067725;29;20489;-57
2022/09/18 13:43:40;;;;;;;4.55;1.30;;;18.90;67.00;;;;;;10067678;29;20189;-57
2022/09/18 13:48:43;;;;;;;4.50;1.60;;;18.90;67.00;;;;;;10068031;29;20520;-56
2022/09/18 13:53:45;;;;;;;6.20;2.00;;;18.80;66.80;;;;;;10068049;29;20089;-57
2022/09/18 13:58:51;;;;;;;4.75;2.00;;;18.80;66.80;;;;;;10067642;29;20116;-57
2022/09/18 14:03:52;;;;;;;3.58;1.00;;;18.80;66.70;;;;;;10067582;29;20124;-57
2022/09/18 14:08:53;;;;;;;3.92;1.00;;;18.80;66.60;;;;;;10067928;29;20036;-56
2022/09/18 14:13:56;;;;;;;6.00;1.65;;;18.80;66.60;;;;;;10084090;29;20120;-57
2022/09/18 14:19:25;;;;;;;4.25;1.10;;;18.80;66.60;;;;;;10077049;29;20041;-56
2022/09/18 14:24:47;;;;;;;4.50;1.30;;;18.80;66.50;;;;;;10084565;29;20048;-57
2022/09/18 14:29:55;;;;;;;4.95;1.02;;;18.80;66.50;;;;;;10091045;29;20397;-56
2022/09/18 14:35:34;;;;;;;4.28;1.33;;;18.80;66.50;;;;;;10074893;29;20041;-57
2022/09/18 14:40:38;;;;;;;2.75;1.17;;;18.80;66.40;;;;;;10074616;29;20105;-57
2022/09/18 14:45:39;;;;;;;4.90;0.98;;;18.80;66.40;;;;;;10073735;29;20025;-56
2022/09/18 14:50:40;;;;;;;3.50;1.08;;;18.80;66.40;;;;;;10074379;29;20563;-56
2022/09/18 14:55:46;;;;;;;3.22;1.23;;;18.80;66.30;;;;;;10090399;29;20053;-56
2022/09/18 15:00:54;;;;;;;3.25;1.70;;;18.80;66.90;;;;;;10074134;29;20041;-56
2022/09/18 15:06:27;;;;;;;4.30;1.10;;;18.80;66.20;;;;;;10073369;29;20415;-56
2022/09/18 15:11:29;;;;;;;3.08;0.80;;;18.80;66.20;;;;;;10076229;29;20033;-56
2022/09/18 15:16:31;;;;;;;2.28;0.77;;;18.80;66.20;;;;;;10089655;29;20040;-56
2022/09/18 15:21:33;;;;;;;3.15;0.70;;;18.80;66.10;;;;;;10083148;29;20124;-56
2022/09/18 15:26:42;;;;;;;3.05;0.95;;;18.80;66.10;;;;;;10072757;29;20029;-56
2022/09/18 15:31:43;;;;;;;2.40;0.80;;;18.80;66.10;;;;;;10089167;29;20037;-55
2022/09/18 15:36:44;;;;;;;2.22;1.15;;;18.70;66.00;;;;;;10071855;29;20101;-56
2022/09/18 15:41:45;;;;;;;5.43;0.95;;;18.80;66.00;;;;;;10071842;29;20048;-55
2022/09/18 15:46:46;;;;;;;1.75;0.80;;;18.70;65.90;;;;;;10088730;29;20496;-55
2022/09/18 15:51:47;;;;;;;2.60;0.60;;;18.70;65.90;;;;;;10071404;29;20442;-56
2022/09/18 15:56:57;;;;;;;5.47;0.88;;;18.70;65.90;;;;;;10088115;29;20053;-57
2022/09/18 16:02:16;;;;;;;2.08;0.60;;;18.70;65.90;;;;;;10087759;29;20045;-55
2022/09/18 16:07:25;;;;;;;2.10;1.17;;;18.70;66.00;;;;;;10088426;29;20033;-56
2022/09/18 16:12:29;;;;;;;2.00;0.60;;;18.70;65.90;;;;;;10070780;29;20089;-55
2022/09/18 16:17:53;;;;;;;2.00;0.98;;;18.70;65.90;;;;;;10093324;29;20036;-56
2022/09/18 16:23:18;;;;;;;2.40;1.20;;;18.70;65.90;;;;;;10086803;29;20049;-55
2022/09/18 16:28:24;;;;;;;2.30;0.80;;;18.70;65.80;;;;;;10087199;29;20133;-56
2022/09/18 16:33:33;;;;;;;1.90;0.57;;;18.70;65.80;;;;;;10087053;29;20037;-56
2022/09/18 16:38:34;;;;;;;2.15;0.95;;;18.70;65.80;;;;;;10069745;29;20727;-57
2022/09/18 16:43:35;;;;;;;1.75;0.95;;;18.70;65.80;;;;;;10070384;29;20056;-57
2022/09/18 16:48:37;;;;;;;3.45;0.90;;;18.70;65.70;;;;;;10068902;29;20057;-57
2022/09/18 16:53:37;;;;;;;1.85;0.90;;;18.60;65.70;;;;;;10069896;29;20069;-57
2022/09/18 16:58:39;;;;;;;2.60;0.98;;;18.70;65.70;;;;;;10069058;29;20154;-56
2022/09/18 17:03:40;;;;;;;2.35;0.93;;;18.60;65.60;;;;;;10069144;29;20044;-56
2022/09/18 17:08:41;;;;;;;2.05;0.90;;;18.70;65.60;;;;;;10069172;29;20388;-56
2022/09/18 17:13:42;;;;;;;1.42;0.65;;;18.70;65.70;;;;;;10085221;29;20037;-57
2022/09/18 17:18:43;;;;;;;1.65;0.50;;;18.60;65.80;;;;;;10094874;29;20029;-57
2022/09/18 17:23:47;;;;;;;1.15;0.80;;;18.60;65.80;;;;;;10085589;29;20501;-57
2022/09/18 17:28:48;;;;;;;2.75;0.80;;;18.60;65.80;;;;;;10083666;29;20059;-57
2022/09/18 17:33:50;;;;;;;1.35;0.50;;;18.60;65.70;;;;;;10084951;29;20170;-57
2022/09/18 17:38:51;;;;;;;2.63;0.93;;;18.70;65.60;;;;;;10068196;29;20393;-55
2022/09/18 17:43:53;;;;;;;2.15;0.50;;;18.70;65.60;;;;;;10083914;29;20048;-57
2022/09/18 17:48:55;;;;;;;1.75;0.70;;;18.70;65.60;;;;;;10084620;29;20025;-57
2022/09/18 17:54:03;;;;;;;1.38;0.57;;;18.60;65.50;;;;;;10084764;29;20059;-57
2022/09/18 17:59:08;;;;;;;2.38;0.73;;;18.60;65.50;;;;;;10088627;29;20769;-56
2022/09/18 18:04:09;;;;;;;2.80;1.25;;;18.60;65.40;;;;;;10062161;29;20033;-57
2022/09/18 18:09:10;;;;;;;1.17;0.55;;;18.60;65.50;;;;;;10077757;29;20040;-57
2022/09/18 18:14:12;;;;;;;1.67;0.60;;;18.60;65.40;;;;;;10077163;29;20073;-56
2022/09/18 18:19:13;;;;;;;2.22;0.80;;;18.60;65.40;;;;;;10086899;29;20037;-56
2022/09/18 18:24:16;;;;;;;2.05;0.77;;;18.60;65.30;;;;;;10076865;29;20518;-57
2022/09/18 18:29:18;;;;;;;5.60;0.70;;;18.60;65.40;;;;;;10076801;29;20121;-58
2022/09/18 18:34:20;;;;;;;6.80;0.95;;;18.60;65.80;;;;;;10076901;29;20045;-56
2022/09/18 18:39:21;;;;;;;4.13;0.95;;;18.70;65.90;;;;;;10092707;29;20489;-56
2022/09/18 18:44:25;;;;;;;5.25;1.20;;;18.60;65.90;;;;;;10072593;29;20055;-58
2022/09/18 18:49:26;;;;;;;5.53;1.42;;;18.70;66.30;;;;;;10086392;29;20040;-58
2022/09/18 18:54:27;;;;;;;6.82;1.58;;;18.60;66.40;;;;;;10090566;29;20045;-56
2022/09/18 18:59:28;;;;;;;4.43;0.82;;;18.60;66.40;;;;;;10074623;29;20037;-57
2022/09/18 19:04:29;;;;;;;7.90;1.40;;;18.60;66.40;;;;;;10092194;29;20112;-57
2022/09/18 19:09:31;;;;;;;3.15;1.10;;;18.60;66.30;;;;;;10091077;29;20418;-57
2022/09/18 19:14:33;;;;;;;4.88;1.40;;;18.60;66.10;;;;;;10074625;29;20080;-57
2022/09/18 19:19:33;;;;;;;4.80;1.05;;;18.50;65.90;;;;;;10100770;29;20057;-57
2022/09/18 19:24:34;;;;;;;3.42;1.08;;;18.50;65.80;;;;;;10088702;29;20668;-56
2022/09/18 19:29:37;;;;;;;4.65;1.33;;;18.60;65.80;;;;;;10071926;29;20033;-57
2022/09/18 19:34:39;;;;;;;2.28;0.90;;;18.50;65.70;;;;;;10072461;29;20630;-57
2022/09/18 19:39:39;;;;;;;2.35;0.73;;;18.60;65.80;;;;;;10085623;29;20523;-57
2022/09/18 19:44:48;;;;;;;6.05;1.10;;;18.50;65.90;;;;;;10086370;29;20045;-57
2022/09/18 19:49:51;;;;;;;3.00;0.60;;;18.50;65.80;;;;;;10074424;29;20029;-57
2022/09/18 19:54:54;;;;;;;1.88;0.60;;;18.50;65.60;;;;;;10088631;29;20053;-56
2022/09/18 19:59:56;;;;;;;2.63;1.20;;;18.50;65.50;;;;;;10073508;29;20033;-56
2022/09/18 20:04:57;;;;;;;4.50;1.20;;;18.50;65.50;;;;;;10073459;29;20131;-56
2022/09/18 20:09:57;;;;;;;1.60;0.70;;;18.50;65.40;;;;;;10073082;29;20032;-55
2022/09/18 20:14:59;;;;;;;4.88;1.50;;;18.50;65.30;;;;;;10089364;29;20061;-56
2022/09/18 20:20:00;;;;;;;3.03;1.23;;;18.50;65.30;;;;;;10099208;29;20044;-57
2022/09/18 20:25:01;;;;;;;5.40;0.80;;;18.50;65.30;;;;;;10088377;29;20690;-57
2022/09/18 20:30:05;;;;;;;2.33;0.80;;;18.50;65.30;;;;;;10089247;29;20044;-56
2022/09/18 20:35:06;;;;;;;2.33;0.80;;;18.40;65.20;;;;;;10087559;29;20033;-56
2022/09/18 20:40:12;;;;;;;3.08;0.80;;;18.40;65.20;;;;;;10088754;29;20060;-55
2022/09/18 20:45:12;;;;;;;3.85;1.05;;;18.40;65.10;;;;;;10089004;29;20029;-57
2022/09/18 20:50:16;;;;;;;3.03;0.88;;;18.40;65.10;;;;;;10072059;29;20116;-57
2022/09/18 20:55:17;;;;;;;3.13;0.63;;;18.40;65.10;;;;;;10072074;29;20045;-57
2022/09/18 21:00:17;;;;;;;2.47;0.70;;;18.40;65.10;;;;;;10071494;29;20069;-58
2022/09/18 21:05:19;;;;;;;1.77;0.70;;;18.40;65.00;;;;;;10071455;29;20120;-56
2022/09/18 21:10:20;;;;;;;2.10;0.90;;;18.40;65.00;;;;;;10087788;29;20417;-57
2022/09/18 21:15:20;;;;;;;3.47;0.93;;;18.40;64.90;;;;;;10087372;29;20069;-57
2022/09/18 21:20:21;;;;;;;2.90;1.05;;;18.40;64.90;;;;;;10096937;29;20366;-57
2022/09/18 21:25:23;;;;;;;3.88;0.85;;;18.40;65.10;;;;;;10070655;29;20068;-56
2022/09/18 21:30:25;;;;;;;2.25;0.88;;;18.30;65.10;;;;;;10087552;29;20033;-57
2022/09/18 21:35:26;;;;;;;1.83;0.88;;;18.40;65.10;;;;;;10086967;29;20393;-57
2022/09/18 21:40:27;;;;;;;3.17;0.75;;;18.40;65.00;;;;;;10086688;29;20041;-56
2022/09/18 21:45:29;;;;;;;2.30;1.27;;;18.30;64.80;;;;;;10086522;29;20089;-57
2022/09/18 21:50:32;;;;;;;2.10;0.80;;;18.30;64.70;;;;;;10070231;29;20034;-56
2022/09/18 21:55:37;;;;;;;3.35;0.70;;;18.30;64.70;;;;;;10070418;29;20056;-56
2022/09/18 22:00:37;;;;;;;3.28;1.15;;;18.30;64.60;;;;;;10086421;29;20052;-57
2022/09/18 22:05:38;;;;;;;3.05;1.10;;;18.30;64.60;;;;;;10069545;29;20498;-57
2022/09/18 22:10:39;;;;;;;2.40;0.85;;;18.30;64.60;;;;;;10069884;29;20151;-56
2022/09/18 22:15:39;;;;;;;2.65;1.05;;;18.30;64.60;;;;;;10069840;29;20112;-57
2022/09/18 22:20:40;;;;;;;1.75;0.80;;;18.30;64.50;;;;;;10084820;29;20087;-58
2022/09/18 22:25:41;;;;;;;1.63;0.93;;;18.30;64.50;;;;;;10086286;29;20061;-57
2022/09/18 22:30:41;;;;;;;2.65;1.13;;;18.30;64.50;;;;;;10053679;29;20072;-56
2022/09/18 22:35:42;;;;;;;2.60;0.95;;;18.30;64.50;;;;;;10069238;29;20063;-57
2022/09/18 22:40:43;;;;;;;2.78;1.00;;;18.30;64.50;;;;;;10069207;29;20124;-57
2022/09/18 22:45:43;;;;;;;7.05;1.02;;;18.30;64.50;;;;;;10086013;29;20456;-57
2022/09/18 22:50:44;;;;;;;3.17;1.30;;;18.20;64.40;;;;;;10075942;29;20037;-57
2022/09/18 22:55:45;;;;;;;2.83;1.27;;;18.30;64.40;;;;;;10092992;29;20084;-57
2022/09/18 23:00:45;;;;;;;2.97;0.88;;;18.20;64.40;;;;;;10092543;29;20120;-57
2022/09/18 23:05:46;;;;;;;1.73;0.70;;;18.20;64.60;;;;;;10092431;29;20723;-57
2022/09/18 23:10:47;;;;;;;2.45;0.70;;;18.20;64.60;;;;;;10092040;29;20128;-57
2022/09/18 23:15:48;;;;;;;2.22;0.90;;;18.20;64.50;;;;;;10090701;29;20183;-57
2022/09/18 23:20:48;;;;;;;3.17;1.10;;;18.20;64.60;;;;;;10101627;29;20076;-57
2022/09/18 23:25:49;;;;;;;1.98;1.00;;;18.20;64.50;;;;;;10091605;29;20064;-58
2022/09/18 23:30:49;;;;;;;1.55;0.85;;;18.20;64.40;;;;;;10091578;29;20079;-57
2022/09/18 23:35:50;;;;;;;3.05;1.33;;;18.20;64.40;;;;;;10074575;29;20113;-57
2022/09/18 23:41:02;;;;;;;4.82;1.00;;;18.20;64.40;;;;;;10091016;29;20103;-57
2022/09/18 23:46:04;;;;;;;2.60;1.40;;;18.20;64.40;;;;;;10074772;29;20036;-58
2022/09/18 23:51:05;;;;;;;2.25;0.70;;;18.20;64.40;;;;;;10073642;29;20033;-57
2022/09/18 23:56:12;;;;;;;2.08;0.68;;;18.20;64.30;;;;;;10058217;29;20370;-57
